createdAt,value
2023-01-09T00:01:49.272Z,6.30
2023-01-09T00:04:35.375Z,6.20
2023-01-09T00:07:21.444Z,6.10
2023-01-09T00:10:08.192Z,5.90
2023-01-09T00:12:54.647Z,5.70
2023-01-09T00:15:41.420Z,5.60
2023-01-09T00:18:27.540Z,5.50
2023-01-09T00:21:14.375Z,5.60
2023-01-09T00:24:00.126Z,5.60
2023-01-09T00:26:45.952Z,5.60
2023-01-09T00:29:32.129Z,5.70
2023-01-09T00:32:18.127Z,5.80
2023-01-09T00:35:04.562Z,6.00
2023-01-09T00:37:50.698Z,6.00
2023-01-09T00:40:36.679Z,6.10
2023-01-09T00:43:24.131Z,6.10
2023-01-09T00:46:10.396Z,6.10
2023-01-09T00:48:56.143Z,6.10
2023-01-09T00:51:42.416Z,6.10
2023-01-09T00:54:28.905Z,6.00
2023-01-09T00:57:15.008Z,6.10
2023-01-09T01:00:01.383Z,5.90
2023-01-09T01:02:47.223Z,5.80
2023-01-09T01:05:51.906Z,5.80
2023-01-09T01:08:37.617Z,5.80
2023-01-09T01:11:23.740Z,5.90
2023-01-09T01:14:09.645Z,6.00
2023-01-09T01:16:55.450Z,6.10
2023-01-09T01:19:41.397Z,6.10
2023-01-09T01:22:27.470Z,6.10
2023-01-09T01:25:14.324Z,6.10
2023-01-09T01:28:00.244Z,6.20
2023-01-09T01:30:46.450Z,6.20
2023-01-09T01:33:33.030Z,6.20
2023-01-09T01:36:18.969Z,6.30
2023-01-09T01:39:05.112Z,6.30
2023-01-09T01:41:51.283Z,6.30
2023-01-09T01:44:56.033Z,6.30
2023-01-09T01:47:51.246Z,6.20
2023-01-09T01:50:45.791Z,6.00
2023-01-09T01:53:37.234Z,5.90
2023-01-09T01:56:25.240Z,5.90
2023-01-09T01:59:14.255Z,5.90
2023-01-09T02:02:01.283Z,5.90
2023-01-09T02:04:47.622Z,6.00
2023-01-09T02:07:33.615Z,6.10
2023-01-09T02:10:23.479Z,6.20
2023-01-09T02:13:10.173Z,6.10
2023-01-09T02:15:56.153Z,6.20
2023-01-09T02:18:54.591Z,6.20
2023-01-09T02:21:59.283Z,6.20
2023-01-09T02:24:55.822Z,6.20
2023-01-09T02:27:58.458Z,6.20
2023-01-09T02:30:47.431Z,6.20
2023-01-09T02:33:36.211Z,6.20
2023-01-09T02:36:28.322Z,6.10
2023-01-09T02:39:26.732Z,6.00
2023-01-09T02:42:12.699Z,6.00
2023-01-09T02:44:58.645Z,6.00
2023-01-09T02:47:46.114Z,6.00
2023-01-09T02:50:31.890Z,5.80
2023-01-09T02:53:23.922Z,5.70
2023-01-09T02:56:16.482Z,5.70
2023-01-09T02:59:12.975Z,5.70
2023-01-09T03:02:08.299Z,5.80
2023-01-09T03:05:03.935Z,5.90
2023-01-09T03:08:08.944Z,5.90
2023-01-09T03:10:58.714Z,6.00
2023-01-09T03:13:53.557Z,5.90
2023-01-09T03:16:39.453Z,5.90
2023-01-09T03:19:27.150Z,6.00
2023-01-09T03:22:13.166Z,6.10
2023-01-09T03:25:00.002Z,6.10
2023-01-09T03:27:46.109Z,6.20
2023-01-09T03:30:32.991Z,6.20
2023-01-09T03:33:19.423Z,6.30
2023-01-09T03:36:05.600Z,6.30
2023-01-09T03:38:51.682Z,6.40
2023-01-09T03:41:37.675Z,6.40
2023-01-09T03:44:23.795Z,6.40
2023-01-09T03:47:09.704Z,6.50
2023-01-09T03:49:55.671Z,6.40
2023-01-09T03:52:41.734Z,6.40
2023-01-09T03:55:28.015Z,6.40
2023-01-09T03:58:14.678Z,6.40
2023-01-09T04:01:01.642Z,6.40
2023-01-09T04:03:47.595Z,6.30
2023-01-09T04:06:33.474Z,6.30
2023-01-09T04:09:19.555Z,6.20
2023-01-09T04:12:05.680Z,6.30
2023-01-09T04:14:51.956Z,6.30
2023-01-09T04:17:38.026Z,6.40
2023-01-09T04:20:24.131Z,6.40
2023-01-09T04:23:10.309Z,6.40
2023-01-09T04:25:56.239Z,6.40
2023-01-09T04:28:42.181Z,6.40
2023-01-09T04:31:28.421Z,6.40
2023-01-09T04:34:14.670Z,6.50
2023-01-09T04:37:00.651Z,6.50
2023-01-09T04:39:46.726Z,6.50
2023-01-09T04:42:32.973Z,6.50
2023-01-09T04:45:18.655Z,6.50
2023-01-09T04:48:04.875Z,6.60
2023-01-09T04:50:50.601Z,6.70
2023-01-09T04:53:36.641Z,6.70
2023-01-09T04:56:22.663Z,6.80
2023-01-09T04:59:09.104Z,6.90
2023-01-09T05:01:56.220Z,6.90
2023-01-09T05:04:42.297Z,7.00
2023-01-09T05:07:28.266Z,7.10
2023-01-09T05:10:14.267Z,7.10
2023-01-09T05:13:00.287Z,7.10
2023-01-09T05:15:46.409Z,7.20
2023-01-09T05:18:32.603Z,7.30
2023-01-09T05:21:18.590Z,7.30
2023-01-09T05:24:04.810Z,7.40
2023-01-09T05:26:50.627Z,7.50
2023-01-09T05:29:38.817Z,7.50
2023-01-09T05:32:24.601Z,7.60
2023-01-09T05:35:10.636Z,7.50
2023-01-09T05:37:56.741Z,7.50
2023-01-09T05:40:42.797Z,7.50
2023-01-09T05:43:28.794Z,7.60
2023-01-09T05:46:14.680Z,7.50
2023-01-09T05:49:00.699Z,7.50
2023-01-09T05:51:46.735Z,7.50
2023-01-09T05:54:32.940Z,7.50
2023-01-09T05:57:19.288Z,7.40
2023-01-09T06:00:05.547Z,7.40
2023-01-09T06:02:52.995Z,7.40
2023-01-09T06:05:39.071Z,7.40
2023-01-09T06:08:25.132Z,7.40
2023-01-09T06:11:11.136Z,7.30
2023-01-09T06:13:57.187Z,7.30
2023-01-09T06:16:43.174Z,7.30
2023-01-09T06:19:29.208Z,7.20
2023-01-09T06:22:15.221Z,7.20
2023-01-09T06:25:01.277Z,7.30
2023-01-09T06:27:47.327Z,7.30
2023-01-09T06:30:34.083Z,7.30
2023-01-09T06:33:20.259Z,7.20
2023-01-09T06:36:06.392Z,7.20
2023-01-09T06:38:52.089Z,7.20
2023-01-09T06:41:38.350Z,7.10
2023-01-09T06:44:24.613Z,7.10
2023-01-09T06:47:10.646Z,7.10
2023-01-09T06:49:58.171Z,7.00
2023-01-09T06:52:44.093Z,7.00
2023-01-09T06:55:30.185Z,7.00
2023-01-09T06:58:16.211Z,7.00
2023-01-09T07:01:02.415Z,6.90
2023-01-09T07:03:48.847Z,6.90
2023-01-09T07:06:34.883Z,6.80
2023-01-09T07:09:20.948Z,6.80
2023-01-09T07:12:07.448Z,6.70
2023-01-09T07:14:53.187Z,6.70
2023-01-09T07:17:39.447Z,6.70
2023-01-09T07:20:25.429Z,6.80
2023-01-09T07:23:12.939Z,6.70
2023-01-09T07:25:59.439Z,6.70
2023-01-09T07:28:45.697Z,6.70
2023-01-09T07:31:32.611Z,6.70
2023-01-09T07:34:18.477Z,6.70
2023-01-09T07:37:04.168Z,6.60
2023-01-09T07:39:50.066Z,6.60
2023-01-09T07:42:36.184Z,6.50
2023-01-09T07:45:22.071Z,6.40
2023-01-09T07:48:08.158Z,6.30
2023-01-09T07:50:54.255Z,6.20
2023-01-09T07:53:40.237Z,6.20
2023-01-09T07:56:26.427Z,6.20
2023-01-09T07:59:12.146Z,6.20
2023-01-09T08:01:58.514Z,6.10
2023-01-09T08:04:44.702Z,6.10
2023-01-09T08:07:30.708Z,6.00
2023-01-09T08:10:19.654Z,6.00
2023-01-09T08:13:05.345Z,6.00
2023-01-09T08:15:51.382Z,6.00
2023-01-09T08:18:37.438Z,6.00
2023-01-09T08:21:23.551Z,5.90
2023-01-09T08:24:09.689Z,5.90
2023-01-09T08:26:55.470Z,5.80
2023-01-09T08:29:41.290Z,5.80
2023-01-09T08:32:27.436Z,5.90
2023-01-09T08:35:13.734Z,5.90
2023-01-09T08:37:59.706Z,5.90
2023-01-09T08:40:47.008Z,5.90
2023-01-09T08:43:51.463Z,6.00
2023-01-09T08:46:56.327Z,5.90
2023-01-09T08:49:42.104Z,6.00
2023-01-09T08:52:30.636Z,6.00
2023-01-09T08:55:16.627Z,6.00
2023-01-09T08:58:02.545Z,6.10
2023-01-09T09:00:48.474Z,6.10
2023-01-09T09:03:34.592Z,6.10
2023-01-09T09:06:20.626Z,6.00
2023-01-09T09:09:06.944Z,6.00
2023-01-09T09:11:53.094Z,6.10
2023-01-09T09:14:57.747Z,6.10
2023-01-09T09:17:44.491Z,6.10
2023-01-09T09:20:37.925Z,6.40
2023-01-09T09:23:23.912Z,6.40
2023-01-09T09:26:10.069Z,6.50
2023-01-09T09:28:55.844Z,6.70
2023-01-09T09:31:41.816Z,6.70
2023-01-09T09:34:27.661Z,6.60
2023-01-09T09:37:13.893Z,6.40
2023-01-09T09:40:09.730Z,6.50
2023-01-09T09:43:28.243Z,6.50
2023-01-09T09:46:17.018Z,6.50
2023-01-09T09:49:07.184Z,6.50
2023-01-09T09:51:56.351Z,6.50
2023-01-09T09:54:44.682Z,6.50
2023-01-09T09:57:35.885Z,6.60
2023-01-09T10:00:23.050Z,6.70
2023-01-09T10:03:33.873Z,6.70
2023-01-09T10:06:26.669Z,6.70
2023-01-09T10:09:26.070Z,6.60
2023-01-09T10:12:23.967Z,6.60
2023-01-09T10:15:30.323Z,6.50
2023-01-09T10:18:33.516Z,6.60
2023-01-09T10:21:38.840Z,6.60
2023-01-09T10:24:34.561Z,6.50
2023-01-09T10:27:43.548Z,6.50
2023-01-09T10:30:37.572Z,6.60
2023-01-09T10:33:23.380Z,6.60
2023-01-09T10:36:31.242Z,6.70
2023-01-09T10:39:37.403Z,6.70
2023-01-09T10:42:31.917Z,6.80
2023-01-09T10:45:20.045Z,6.90
2023-01-09T10:48:23.304Z,6.90
2023-01-09T10:51:20.349Z,7.00
2023-01-09T10:54:12.650Z,7.10
2023-01-09T10:57:04.904Z,7.10
2023-01-09T10:59:50.606Z,7.10
2023-01-09T11:02:36.837Z,7.20
2023-01-09T11:05:29.606Z,7.20
2023-01-09T11:08:28.240Z,7.20
2023-01-09T11:11:30.587Z,7.30
2023-01-09T11:14:33.037Z,7.20
2023-01-09T11:17:20.486Z,7.20
2023-01-09T11:20:13.864Z,7.20
2023-01-09T11:23:00.301Z,7.20
2023-01-09T11:25:51.925Z,7.20
2023-01-09T11:28:38.052Z,7.20
2023-01-09T11:31:25.034Z,7.10
2023-01-09T11:34:44.985Z,7.20
2023-01-09T11:37:31.768Z,7.20
2023-01-09T11:40:20.240Z,7.30
2023-01-09T11:43:18.476Z,7.30
2023-01-09T11:46:08.959Z,7.40
2023-01-09T11:48:58.962Z,7.40
2023-01-09T11:51:45.107Z,7.40
2023-01-09T11:54:32.733Z,7.50
2023-01-09T11:57:19.054Z,7.50
2023-01-09T12:00:20.166Z,7.50
2023-01-09T12:03:19.997Z,7.60
2023-01-09T12:06:14.551Z,7.60
2023-01-09T12:09:02.288Z,7.70
2023-01-09T12:11:55.447Z,7.70
2023-01-09T12:14:41.342Z,7.70
2023-01-09T12:17:27.409Z,7.70
2023-01-09T12:20:17.687Z,7.80
2023-01-09T12:23:06.506Z,7.80
2023-01-09T12:25:58.661Z,7.70
2023-01-09T12:28:53.754Z,7.70
2023-01-09T12:31:46.954Z,7.80
2023-01-09T12:34:51.716Z,7.80
2023-01-09T12:37:40.906Z,7.80
2023-01-09T12:40:39.370Z,7.80
2023-01-09T12:43:26.227Z,7.80
2023-01-09T12:46:12.249Z,7.70
2023-01-09T12:49:04.315Z,7.70
2023-01-09T12:52:25.837Z,7.70
2023-01-09T12:55:17.624Z,7.80
2023-01-09T12:58:07.751Z,7.90
2023-01-09T13:00:54.357Z,8.00
2023-01-09T13:03:41.236Z,8.00
2023-01-09T13:06:28.854Z,8.10
2023-01-09T13:09:32.992Z,8.10
2023-01-09T13:12:21.661Z,8.00
2023-01-09T13:15:19.441Z,7.90
2023-01-09T13:18:13.935Z,7.90
2023-01-09T13:21:01.194Z,8.00
2023-01-09T13:24:05.940Z,7.90
2023-01-09T13:27:21.229Z,7.90
2023-01-09T13:30:17.044Z,7.80
2023-01-09T13:33:09.192Z,7.80
2023-01-09T13:35:57.403Z,7.80
2023-01-09T13:38:48.982Z,7.70
2023-01-09T13:42:04.467Z,7.60
2023-01-09T13:44:52.344Z,7.60
2023-01-09T13:47:38.637Z,7.70
2023-01-09T13:50:26.467Z,7.70
2023-01-09T13:53:18.299Z,7.70
2023-01-09T13:56:05.906Z,7.70
2023-01-09T13:58:54.694Z,7.70
2023-01-09T14:01:41.543Z,7.70
2023-01-09T14:04:27.976Z,7.70
2023-01-09T14:07:20.072Z,7.70
2023-01-09T14:10:08.065Z,7.70
2023-01-09T14:12:55.034Z,7.60
2023-01-09T14:15:41.748Z,7.60
2023-01-09T14:18:32.834Z,7.60
2023-01-09T14:21:18.991Z,7.60
2023-01-09T14:24:07.210Z,7.60
2023-01-09T14:26:57.105Z,7.60
2023-01-09T14:29:44.638Z,7.50
2023-01-09T14:32:33.925Z,7.50
2023-01-09T14:35:24.317Z,7.40
2023-01-09T14:38:17.472Z,7.40
2023-01-09T14:41:18.299Z,7.40
2023-01-09T14:44:06.593Z,7.40
2023-01-09T14:46:53.450Z,7.30
2023-01-09T14:49:41.797Z,7.30
2023-01-09T14:52:27.574Z,7.30
2023-01-09T14:55:26.868Z,7.30
2023-01-09T14:58:26.731Z,7.20
2023-01-09T15:01:16.927Z,7.20
2023-01-09T15:04:05.547Z,7.20
2023-01-09T15:06:51.931Z,7.20
2023-01-09T15:09:37.965Z,7.20
2023-01-09T15:12:24.413Z,7.30
2023-01-09T15:15:12.590Z,7.30
2023-01-09T15:18:03.190Z,7.30
2023-01-09T15:20:54.542Z,7.20
2023-01-09T15:23:40.213Z,7.20
2023-01-09T15:26:27.806Z,7.20
2023-01-09T15:29:17.781Z,7.10
2023-01-09T15:32:07.307Z,7.00
2023-01-09T15:34:54.712Z,7.00
2023-01-09T15:37:40.862Z,7.00
2023-01-09T15:40:32.160Z,6.90
2023-01-09T15:43:18.596Z,6.90
2023-01-09T15:46:04.341Z,6.80
2023-01-09T15:48:53.923Z,6.80
2023-01-09T15:51:42.007Z,6.80
2023-01-09T15:54:30.206Z,6.80
2023-01-09T15:57:25.180Z,6.80
2023-01-09T16:00:32.156Z,6.90
2023-01-09T16:03:20.204Z,6.90
2023-01-09T16:06:29.623Z,7.00
2023-01-09T16:09:37.822Z,7.00
2023-01-09T16:12:25.374Z,7.10
2023-01-09T16:15:15.677Z,7.00
2023-01-09T16:18:13.827Z,7.00
2023-01-09T16:21:03.113Z,6.90
2023-01-09T16:23:53.375Z,6.90
2023-01-09T16:26:39.546Z,6.90
2023-01-09T16:29:49.951Z,6.80
2023-01-09T16:32:45.427Z,6.80
2023-01-09T16:35:31.432Z,6.80
2023-01-09T16:38:17.868Z,6.80
2023-01-09T16:41:38.413Z,6.80
2023-01-09T16:44:26.077Z,6.70
2023-01-09T16:47:14.257Z,6.60
2023-01-09T16:50:00.157Z,6.50
2023-01-09T16:52:47.433Z,6.50
2023-01-09T16:55:33.573Z,6.40
2023-01-09T16:58:23.716Z,6.40
2023-01-09T17:01:10.745Z,6.40
2023-01-09T17:03:58.447Z,6.30
2023-01-09T17:06:45.882Z,6.30
2023-01-09T17:09:32.700Z,6.30
2023-01-09T17:12:20.215Z,6.30
2023-01-09T17:15:06.601Z,6.30
2023-01-09T17:17:52.575Z,6.30
2023-01-09T17:20:39.895Z,6.30
2023-01-09T17:23:25.909Z,6.30
2023-01-09T17:26:40.093Z,6.30
2023-01-09T17:29:25.957Z,6.20
2023-01-09T17:32:20.751Z,6.20
2023-01-09T17:35:07.249Z,6.20
2023-01-09T17:37:53.105Z,6.10
2023-01-09T17:40:39.200Z,6.10
2023-01-09T17:43:25.286Z,6.10
2023-01-09T17:46:14.774Z,6.10
2023-01-09T17:49:01.586Z,6.10
2023-01-09T17:51:47.420Z,6.10
2023-01-09T17:54:33.331Z,6.00
2023-01-09T17:57:19.414Z,6.00
2023-01-09T18:00:06.399Z,5.90
2023-01-09T18:02:52.918Z,5.80
2023-01-09T18:05:38.865Z,5.70
2023-01-09T18:08:24.822Z,5.70
2023-01-09T18:11:14.901Z,5.70
2023-01-09T18:14:00.670Z,5.70
2023-01-09T18:16:46.818Z,5.60
2023-01-09T18:19:33.405Z,5.60
2023-01-09T18:22:19.112Z,5.50
2023-01-09T18:25:05.390Z,5.50
2023-01-09T18:27:51.734Z,5.50
2023-01-09T18:30:37.701Z,5.50
2023-01-09T18:33:24.064Z,5.50
2023-01-09T18:36:10.937Z,5.40
2023-01-09T18:39:01.415Z,5.40
2023-01-09T18:41:47.454Z,5.40
2023-01-09T18:44:33.614Z,5.40
2023-01-09T18:47:19.419Z,5.40
2023-01-09T18:50:05.717Z,5.30
2023-01-09T18:52:52.015Z,5.30
2023-01-09T18:55:41.367Z,5.30
2023-01-09T18:58:27.970Z,5.20
2023-01-09T19:01:14.972Z,5.30
2023-01-09T19:04:01.187Z,5.20
2023-01-09T19:06:47.206Z,5.20
2023-01-09T19:09:33.279Z,5.20
2023-01-09T19:12:19.072Z,5.20
2023-01-09T19:15:10.870Z,5.20
2023-01-09T19:17:57.369Z,5.30
2023-01-09T19:20:43.351Z,5.30
2023-01-09T19:23:29.372Z,5.30
2023-01-09T19:26:17.104Z,5.40
2023-01-09T19:29:03.111Z,5.40
2023-01-09T19:31:49.528Z,5.40
2023-01-09T19:34:35.580Z,5.30
2023-01-09T19:37:21.629Z,5.40
2023-01-09T19:40:07.551Z,5.40
2023-01-09T19:42:54.499Z,5.40
2023-01-09T19:45:40.606Z,5.40
2023-01-09T19:48:27.573Z,5.30
2023-01-09T19:51:14.540Z,5.30
2023-01-09T19:54:03.225Z,5.30
2023-01-09T19:56:49.226Z,5.20
2023-01-09T19:59:36.212Z,5.20
2023-01-09T20:05:13.088Z,5.20
2023-01-09T20:07:59.021Z,5.10
2023-01-09T20:10:45.077Z,5.00
2023-01-09T20:13:31.022Z,4.80
2023-01-09T20:16:19.914Z,4.70
2023-01-09T20:19:08.498Z,4.70
2023-01-09T20:21:54.322Z,4.60
2023-01-09T20:24:40.405Z,4.60
2023-01-09T20:27:26.552Z,4.60
2023-01-09T20:30:12.803Z,4.60
2023-01-09T20:33:00.160Z,4.70
2023-01-09T20:35:46.077Z,4.70
2023-01-09T20:38:32.141Z,4.70
2023-01-09T20:41:24.232Z,4.70
2023-01-09T20:44:11.960Z,4.80
2023-01-09T20:46:57.974Z,4.80
2023-01-09T20:49:43.896Z,4.90
2023-01-09T20:52:29.902Z,4.80
2023-01-09T20:55:16.032Z,4.80
2023-01-09T20:58:02.135Z,4.80
2023-01-09T21:00:48.337Z,4.70
2023-01-09T21:03:34.560Z,4.70
2023-01-09T21:06:21.511Z,4.70
2023-01-09T21:09:07.373Z,4.70
2023-01-09T21:11:53.442Z,4.70
2023-01-09T21:14:39.495Z,4.70
2023-01-09T21:17:25.591Z,4.70
2023-01-09T21:20:13.137Z,4.70
2023-01-09T21:22:58.790Z,4.70
2023-01-09T21:25:45.284Z,4.50
2023-01-09T21:28:31.738Z,4.50
2023-01-09T21:31:19.472Z,4.50
2023-01-09T21:34:06.848Z,4.50
2023-01-09T21:36:52.720Z,4.60
2023-01-09T21:39:38.746Z,4.50
2023-01-09T21:42:43.418Z,4.60
2023-01-09T21:45:47.971Z,4.50
2023-01-09T21:48:33.495Z,4.50
2023-01-09T21:51:19.637Z,4.50
2023-01-09T21:54:05.743Z,4.40
2023-01-09T21:56:52.270Z,4.50
2023-01-09T21:59:38.325Z,4.50
2023-01-09T22:02:24.522Z,4.50
2023-01-09T22:05:10.599Z,4.40
2023-01-09T22:07:56.480Z,4.40
2023-01-09T22:10:42.173Z,4.30
2023-01-09T22:13:28.575Z,4.30
2023-01-09T22:16:14.415Z,4.40
2023-01-09T22:19:00.531Z,4.40
2023-01-09T22:21:46.716Z,4.50
2023-01-09T22:24:32.700Z,4.60
2023-01-09T22:27:19.028Z,4.50
2023-01-09T22:30:05.161Z,4.50
2023-01-09T22:32:51.201Z,4.60
2023-01-09T22:35:41.009Z,4.60
2023-01-09T22:38:26.642Z,4.60
2023-01-09T22:41:13.142Z,4.60
2023-01-09T22:43:59.184Z,4.60
2023-01-09T22:46:45.317Z,4.60
2023-01-09T22:49:41.104Z,4.60
2023-01-09T22:52:37.270Z,4.60
2023-01-09T22:55:23.148Z,4.70
2023-01-09T22:58:09.233Z,4.60
2023-01-09T23:00:55.255Z,4.60
2023-01-09T23:03:41.387Z,4.70
2023-01-09T23:06:27.387Z,4.70
2023-01-09T23:09:13.411Z,4.70
2023-01-09T23:12:02.284Z,4.70
2023-01-09T23:14:48.338Z,4.80
2023-01-09T23:17:34.660Z,4.80
2023-01-09T23:20:20.440Z,4.80
2023-01-09T23:23:07.053Z,4.80
2023-01-09T23:25:54.161Z,4.70
2023-01-09T23:28:40.381Z,4.70
2023-01-09T23:31:26.521Z,4.70
2023-01-09T23:34:17.092Z,4.70
2023-01-09T23:37:05.883Z,4.70
2023-01-09T23:39:52.125Z,4.70
2023-01-09T23:42:57.045Z,4.70
2023-01-09T23:45:44.234Z,4.70
2023-01-09T23:48:30.287Z,4.60
2023-01-09T23:51:16.149Z,4.60
2023-01-09T23:54:02.146Z,4.60
2023-01-09T23:56:48.233Z,4.50
2023-01-09T23:59:34.218Z,4.50
